sensor_id;sensor_type;location;lat;lon;timestamp;pressure;altitude;pressure_sealevel;temperature;humidity
12781;BME280;6454;43.304;24.344;2023-09-18T00:01:44;100751.72;;;17.63;96.29
12781;BME280;6454;43.304;24.344;2023-09-18T00:04:11;100741.16;;;17.48;96.55
12781;BME280;6454;43.304;24.344;2023-09-18T00:06:39;100752.88;;;17.62;96.60
12781;BME280;6454;43.304;24.344;2023-09-18T00:09:06;100754.00;;;17.61;96.83
12781;BME280;6454;43.304;24.344;2023-09-18T00:11:37;100760.44;;;17.65;95.71
12781;BME280;6454;43.304;24.344;2023-09-18T00:14:06;100759.63;;;17.56;95.78
12781;BME280;6454;43.304;24.344;2023-09-18T00:16:35;100744.53;;;17.45;95.62
12781;BME280;6454;43.304;24.344;2023-09-18T00:19:02;100756.31;;;17.46;95.92
12781;BME280;6454;43.304;24.344;2023-09-18T00:21:30;100758.09;;;17.42;96.41
12781;BME280;6454;43.304;24.344;2023-09-18T00:23:59;100761.00;;;17.45;96.63
12781;BME280;6454;43.304;24.344;2023-09-18T00:26:26;100751.59;;;17.37;97.26
12781;BME280;6454;43.304;24.344;2023-09-18T00:28:55;100761.31;;;17.44;97.12
12781;BME280;6454;43.304;24.344;2023-09-18T00:31:25;100764.63;;;17.54;95.57
12781;BME280;6454;43.304;24.344;2023-09-18T00:33:53;100758.31;;;17.54;95.64
12781;BME280;6454;43.304;24.344;2023-09-18T00:36:19;100772.38;;;17.52;95.26
12781;BME280;6454;43.304;24.344;2023-09-18T00:38:48;100774.16;;;17.57;95.33
12781;BME280;6454;43.304;24.344;2023-09-18T00:41:16;100775.47;;;17.59;95.14
12781;BME280;6454;43.304;24.344;2023-09-18T00:43:44;100775.59;;;17.54;95.81
12781;BME280;6454;43.304;24.344;2023-09-18T00:46:11;100762.28;;;17.48;96.37
12781;BME280;6454;43.304;24.344;2023-09-18T00:48:41;100773.78;;;17.50;96.60
12781;BME280;6454;43.304;24.344;2023-09-18T00:51:10;100765.38;;;17.46;97.19
12781;BME280;6454;43.304;24.344;2023-09-18T00:53:38;100774.78;;;17.54;96.94
12781;BME280;6454;43.304;24.344;2023-09-18T00:56:05;100740.69;;;17.46;97.15
12781;BME280;6454;43.304;24.344;2023-09-18T00:58:34;100771.09;;;17.58;96.95
12781;BME280;6454;43.304;24.344;2023-09-18T01:01:01;100767.47;;;17.49;98.05
12781;BME280;6454;43.304;24.344;2023-09-18T01:03:30;100767.78;;;17.48;99.03
12781;BME280;6454;43.304;24.344;2023-09-18T01:06:00;100770.28;;;17.58;98.99
12781;BME280;6454;43.304;24.344;2023-09-18T01:08:27;100774.97;;;17.57;99.18
12781;BME280;6454;43.304;24.344;2023-09-18T01:11:02;100766.41;;;17.59;99.73
12781;BME280;6454;43.304;24.344;2023-09-18T01:13:36;100769.97;;;17.59;100.00
12781;BME280;6454;43.304;24.344;2023-09-18T01:16:17;100769.19;;;17.67;100.00
12781;BME280;6454;43.304;24.344;2023-09-18T01:18:51;100775.31;;;17.64;100.00
12781;BME280;6454;43.304;24.344;2023-09-18T01:21:21;100769.97;;;17.59;100.00
12781;BME280;6454;43.304;24.344;2023-09-18T01:23:50;100764.50;;;17.68;100.00
12781;BME280;6454;43.304;24.344;2023-09-18T01:26:18;100773.88;;;17.75;100.00
12781;BME280;6454;43.304;24.344;2023-09-18T01:28:45;100771.13;;;17.75;100.00
12781;BME280;6454;43.304;24.344;2023-09-18T01:31:12;100771.31;;;17.79;100.00
12781;BME280;6454;43.304;24.344;2023-09-18T01:33:42;100766.00;;;17.82;100.00
12781;BME280;6454;43.304;24.344;2023-09-18T01:36:11;100766.00;;;17.82;100.00
12781;BME280;6454;43.304;24.344;2023-09-18T01:38:40;100764.53;;;17.76;100.00
12781;BME280;6454;43.304;24.344;2023-09-18T01:41:10;100762.59;;;17.85;100.00
12781;BME280;6454;43.304;24.344;2023-09-18T01:43:37;100761.97;;;17.88;100.00
12781;BME280;6454;43.304;24.344;2023-09-18T01:46:05;100766.97;;;17.86;100.00
12781;BME280;6454;43.304;24.344;2023-09-18T01:48:33;100742.72;;;17.71;100.00
12781;BME280;6454;43.304;24.344;2023-09-18T01:51:00;100764.72;;;17.88;100.00
12781;BME280;6454;43.304;24.344;2023-09-18T01:53:27;100759.84;;;17.85;100.00
12781;BME280;6454;43.304;24.344;2023-09-18T01:55:54;100745.31;;;17.85;100.00
12781;BME280;6454;43.304;24.344;2023-09-18T01:58:23;100725.78;;;17.78;100.00
12781;BME280;6454;43.304;24.344;2023-09-18T02:00:50;100753.72;;;17.88;100.00
12781;BME280;6454;43.304;24.344;2023-09-18T02:03:17;100743.38;;;17.77;100.00
12781;BME280;6454;43.304;24.344;2023-09-18T02:05:46;100759.84;;;17.85;100.00
12781;BME280;6454;43.304;24.344;2023-09-18T02:08:13;100735.63;;;17.79;100.00
12781;BME280;6454;43.304;24.344;2023-09-18T02:10:41;100760.69;;;17.94;100.00
12781;BME280;6454;43.304;24.344;2023-09-18T02:13:09;100771.69;;;18.03;100.00
12781;BME280;6454;43.304;24.344;2023-09-18T02:15:38;100769.75;;;18.03;100.00
12781;BME280;6454;43.304;24.344;2023-09-18T02:18:06;100763.47;;;18.12;100.00
12781;BME280;6454;43.304;24.344;2023-09-18T02:20:40;100771.69;;;18.12;100.00
12781;BME280;6454;43.304;24.344;2023-09-18T02:23:07;100770.56;;;18.13;100.00
12781;BME280;6454;43.304;24.344;2023-09-18T02:25:35;100768.97;;;18.12;100.00
12781;BME280;6454;43.304;24.344;2023-09-18T02:28:03;100757.28;;;17.97;100.00
12781;BME280;6454;43.304;24.344;2023-09-18T02:30:30;100733.56;;;17.93;100.00
12781;BME280;6454;43.304;24.344;2023-09-18T02:33:01;100765.72;;;18.18;100.00
12781;BME280;6454;43.304;24.344;2023-09-18T02:35:29;100774.75;;;18.10;100.00
12781;BME280;6454;43.304;24.344;2023-09-18T02:37:57;100766.84;;;18.09;100.00
12781;BME280;6454;43.304;24.344;2023-09-18T02:40:26;100778.94;;;18.08;100.00
12781;BME280;6454;43.304;24.344;2023-09-18T02:42:53;100766.03;;;17.99;100.00
12781;BME280;6454;43.304;24.344;2023-09-18T02:45:20;100750.50;;;17.95;100.00
12781;BME280;6454;43.304;24.344;2023-09-18T02:47:47;100776.72;;;18.10;100.00
12781;BME280;6454;43.304;24.344;2023-09-18T02:50:16;100772.31;;;18.00;100.00
12781;BME280;6454;43.304;24.344;2023-09-18T02:52:42;100777.66;;;17.96;100.00
12781;BME280;6454;43.304;24.344;2023-09-18T02:55:10;100785.09;;;18.05;100.00
12781;BME280;6454;43.304;24.344;2023-09-18T02:57:37;100788.78;;;18.00;100.00
12781;BME280;6454;43.304;24.344;2023-09-18T03:00:06;100581.09;;;16.40;100.00
12781;BME280;6454;43.304;24.344;2023-09-18T03:02:33;100781.06;;;18.11;100.00
12781;BME280;6454;43.304;24.344;2023-09-18T03:05:01;100785.09;;;18.05;100.00
12781;BME280;6454;43.304;24.344;2023-09-18T03:07:31;100782.22;;;18.10;100.00
12781;BME280;6454;43.304;24.344;2023-09-18T03:09:58;100787.50;;;18.06;100.00
12781;BME280;6454;43.304;24.344;2023-09-18T03:12:25;100787.03;;;18.13;100.00
12781;BME280;6454;43.304;24.344;2023-09-18T03:14:53;100787.03;;;18.13;100.00
12781;BME280;6454;43.304;24.344;2023-09-18T03:17:20;100788.31;;;18.07;100.00
12781;BME280;6454;43.304;24.344;2023-09-18T03:19:48;100795.41;;;18.08;100.00
12781;BME280;6454;43.304;24.344;2023-09-18T03:22:16;100705.34;;;17.45;100.00
12781;BME280;6454;43.304;24.344;2023-09-18T03:24:46;100787.38;;;18.20;100.00
12781;BME280;6454;43.304;24.344;2023-09-18T03:27:14;100770.06;;;17.93;100.00
12781;BME280;6454;43.304;24.344;2023-09-18T03:29:43;100796.38;;;18.03;100.00
12781;BME280;6454;43.304;24.344;2023-09-18T03:32:11;100800.09;;;17.98;100.00
12781;BME280;6454;43.304;24.344;2023-09-18T03:34:40;100798.63;;;17.92;100.00
12781;BME280;6454;43.304;24.344;2023-09-18T03:37:08;100773.56;;;17.77;100.00
12781;BME280;6454;43.304;24.344;2023-09-18T03:39:36;100798.66;;;18.01;100.00
12781;BME280;6454;43.304;24.344;2023-09-18T03:42:06;100798.16;;;18.08;100.00
12781;BME280;6454;43.304;24.344;2023-09-18T03:44:34;100794.47;;;18.03;100.00
12781;BME280;6454;43.304;24.344;2023-09-18T03:47:03;100797.19;;;18.03;100.00
12781;BME280;6454;43.304;24.344;2023-09-18T03:49:32;100793.66;;;17.94;100.00
12781;BME280;6454;43.304;24.344;2023-09-18T03:51:59;100799.59;;;17.88;100.00
12781;BME280;6454;43.304;24.344;2023-09-18T03:54:26;100804.09;;;17.84;100.00
12781;BME280;6454;43.304;24.344;2023-09-18T03:56:53;100793.75;;;17.81;100.00
12781;BME280;6454;43.304;24.344;2023-09-18T03:59:22;100798.88;;;17.65;100.00
12781;BME280;6454;43.304;24.344;2023-09-18T04:01:50;100791.59;;;17.61;100.00
12781;BME280;6454;43.304;24.344;2023-09-18T04:04:17;100793.53;;;17.60;100.00
12781;BME280;6454;43.304;24.344;2023-09-18T04:06:44;100788.84;;;17.52;100.00
12781;BME280;6454;43.304;24.344;2023-09-18T04:09:13;100795.91;;;17.53;100.00
12781;BME280;6454;43.304;24.344;2023-09-18T04:11:40;100785.13;;;17.57;99.44
12781;BME280;6454;43.304;24.344;2023-09-18T04:14:07;100790.44;;;17.53;99.40
12781;BME280;6454;43.304;24.344;2023-09-18T04:16:37;100797.78;;;17.44;99.53
12781;BME280;6454;43.304;24.344;2023-09-18T04:19:07;100792.25;;;17.35;99.46
12781;BME280;6454;43.304;24.344;2023-09-18T04:21:35;100789.84;;;17.34;99.66
12781;BME280;6454;43.304;24.344;2023-09-18T04:24:03;100790.16;;;17.32;100.00
12781;BME280;6454;43.304;24.344;2023-09-18T04:26:30;100791.59;;;17.30;100.00
12781;BME280;6454;43.304;24.344;2023-09-18T04:28:59;100772.81;;;17.15;100.00
12781;BME280;6454;43.304;24.344;2023-09-18T04:31:26;100791.78;;;17.33;100.00
12781;BME280;6454;43.304;24.344;2023-09-18T04:33:56;100679.00;;;16.56;100.00
12781;BME280;6454;43.304;24.344;2023-09-18T04:36:23;100813.09;;;17.36;100.00
12781;BME280;6454;43.304;24.344;2023-09-18T04:38:51;100756.50;;;17.10;100.00
12781;BME280;6454;43.304;24.344;2023-09-18T04:41:19;100805.69;;;17.46;100.00
12781;BME280;6454;43.304;24.344;2023-09-18T04:43:46;100809.25;;;17.46;100.00
12781;BME280;6454;43.304;24.344;2023-09-18T04:46:13;100817.88;;;17.53;100.00
12781;BME280;6454;43.304;24.344;2023-09-18T04:48:41;100817.56;;;17.55;100.00
12781;BME280;6454;43.304;24.344;2023-09-18T04:51:11;100791.97;;;17.37;100.00
12781;BME280;6454;43.304;24.344;2023-09-18T04:53:38;100821.41;;;17.54;100.00
12781;BME280;6454;43.304;24.344;2023-09-18T04:56:06;100821.19;;;17.50;100.00
12781;BME280;6454;43.304;24.344;2023-09-18T04:58:36;100831.44;;;17.58;100.00
12781;BME280;6454;43.304;24.344;2023-09-18T05:01:04;100819.03;;;17.61;100.00
12781;BME280;6454;43.304;24.344;2023-09-18T05:03:36;100818.25;;;17.69;100.00
12781;BME280;6454;43.304;24.344;2023-09-18T05:06:04;100821.03;;;17.77;100.00
12781;BME280;6454;43.304;24.344;2023-09-18T05:08:36;100828.03;;;17.92;100.00
12781;BME280;6454;43.304;24.344;2023-09-18T05:11:06;100832.06;;;18.03;100.00
12781;BME280;6454;43.304;24.344;2023-09-18T05:13:36;100822.41;;;18.14;100.00
12781;BME280;6454;43.304;24.344;2023-09-18T05:16:04;100809.00;;;18.13;100.00
12781;BME280;6454;43.304;24.344;2023-09-18T05:18:32;100823.91;;;18.29;100.00
12781;BME280;6454;43.304;24.344;2023-09-18T05:21:00;100827.78;;;18.36;100.00
12781;BME280;6454;43.304;24.344;2023-09-18T05:23:31;100824.53;;;18.43;100.00
12781;BME280;6454;43.304;24.344;2023-09-18T05:25:59;100827.00;;;18.44;100.00
12781;BME280;6454;43.304;24.344;2023-09-18T05:28:26;100835.09;;;18.49;100.00
12781;BME280;6454;43.304;24.344;2023-09-18T05:30:54;100826.84;;;18.58;100.00
12781;BME280;6454;43.304;24.344;2023-09-18T05:33:21;100834.13;;;18.71;100.00
12781;BME280;6454;43.304;24.344;2023-09-18T05:35:48;100833.31;;;18.79;100.00
12781;BME280;6454;43.304;24.344;2023-09-18T05:38:17;100839.13;;;18.86;100.00
12781;BME280;6454;43.304;24.344;2023-09-18T05:40:47;100833.63;;;18.86;100.00
12781;BME280;6454;43.304;24.344;2023-09-18T05:43:14;100837.50;;;18.94;100.00
12781;BME280;6454;43.304;24.344;2023-09-18T05:45:42;100836.19;;;19.00;100.00
12781;BME280;6454;43.304;24.344;2023-09-18T05:48:09;100834.59;;;18.99;100.00
12781;BME280;6454;43.304;24.344;2023-09-18T05:50:38;100838.78;;;19.05;100.00
12781;BME280;6454;43.304;24.344;2023-09-18T05:53:07;100843.31;;;19.01;100.00
12781;BME280;6454;43.304;24.344;2023-09-18T05:55:34;100850.41;;;19.10;100.00
12781;BME280;6454;43.304;24.344;2023-09-18T05:58:03;100844.09;;;19.18;100.00
12781;BME280;6454;43.304;24.344;2023-09-18T06:00:33;100848.94;;;19.21;100.00
12781;BME280;6454;43.304;24.344;2023-09-18T06:03:02;100765.59;;;18.66;100.00
12781;BME280;6454;43.304;24.344;2023-09-18T06:05:32;100843.13;;;19.23;100.00
12781;BME280;6454;43.304;24.344;2023-09-18T06:08:00;100856.19;;;19.35;100.00
12781;BME280;6454;43.304;24.344;2023-09-18T06:10:27;100835.50;;;19.28;100.00
12781;BME280;6454;43.304;24.344;2023-09-18T06:12:55;100854.09;;;19.49;100.00
12781;BME280;6454;43.304;24.344;2023-09-18T06:15:24;100855.69;;;19.50;100.00
12781;BME280;6454;43.304;24.344;2023-09-18T06:17:51;100852.91;;;19.58;100.00
12781;BME280;6454;43.304;24.344;2023-09-18T06:20:18;100852.91;;;19.67;100.00
12781;BME280;6454;43.304;24.344;2023-09-18T06:22:45;100854.31;;;19.73;100.00
12781;BME280;6454;43.304;24.344;2023-09-18T06:25:13;100852.38;;;19.73;100.00
12781;BME280;6454;43.304;24.344;2023-09-18T06:27:41;100852.94;;;19.87;100.00
12781;BME280;6454;43.304;24.344;2023-09-18T06:30:09;100769.16;;;19.39;100.00
12781;BME280;6454;43.304;24.344;2023-09-18T06:32:38;100777.13;;;19.61;100.00
12781;BME280;6454;43.304;24.344;2023-09-18T06:35:06;100861.09;;;20.13;100.00
12781;BME280;6454;43.304;24.344;2023-09-18T06:37:33;100859.72;;;20.19;100.00
12781;BME280;6454;43.304;24.344;2023-09-18T06:40:00;100854.56;;;20.26;100.00
12781;BME280;6454;43.304;24.344;2023-09-18T06:42:30;100849.78;;;20.35;100.00
12781;BME280;6454;43.304;24.344;2023-09-18T06:44:57;100860.22;;;20.50;100.00
12781;BME280;6454;43.304;24.344;2023-09-18T06:47:24;100855.63;;;20.54;100.00
12781;BME280;6454;43.304;24.344;2023-09-18T06:49:53;100851.81;;;20.68;100.00
12781;BME280;6454;43.304;24.344;2023-09-18T06:52:20;100862.78;;;20.76;100.00
12781;BME280;6454;43.304;24.344;2023-09-18T06:54:49;100863.84;;;20.84;100.00
12781;BME280;6454;43.304;24.344;2023-09-18T06:57:18;100860.53;;;20.70;100.00
12781;BME280;6454;43.304;24.344;2023-09-18T06:59:46;100858.19;;;20.80;100.00
12781;BME280;6454;43.304;24.344;2023-09-18T07:02:13;100867.19;;;20.89;100.00
12781;BME280;6454;43.304;24.344;2023-09-18T07:04:40;100862.72;;;21.05;100.00
12781;BME280;6454;43.304;24.344;2023-09-18T07:07:14;100827.91;;;20.92;100.00
12781;BME280;6454;43.304;24.344;2023-09-18T07:09:42;100859.63;;;21.19;100.00
12781;BME280;6454;43.304;24.344;2023-09-18T07:12:09;100830.00;;;21.16;100.00
12781;BME280;6454;43.304;24.344;2023-09-18T07:14:36;100856.59;;;21.45;100.00
12781;BME280;6454;43.304;24.344;2023-09-18T07:17:04;100860.78;;;21.51;100.00
12781;BME280;6454;43.304;24.344;2023-09-18T07:19:31;100858.84;;;21.63;100.00
12781;BME280;6454;43.304;24.344;2023-09-18T07:21:59;100856.19;;;21.79;100.00
12781;BME280;6454;43.304;24.344;2023-09-18T07:24:31;100866.91;;;21.80;100.00
12781;BME280;6454;43.304;24.344;2023-09-18T07:26:58;100859.31;;;21.77;100.00
12781;BME280;6454;43.304;24.344;2023-09-18T07:29:25;100863.38;;;21.92;100.00
12781;BME280;6454;43.304;24.344;2023-09-18T07:31:53;100857.84;;;22.04;100.00
12781;BME280;6454;43.304;24.344;2023-09-18T07:34:20;100865.09;;;22.21;100.00
12781;BME280;6454;43.304;24.344;2023-09-18T07:36:47;100858.88;;;22.36;100.00
12781;BME280;6454;43.304;24.344;2023-09-18T07:39:19;100856.88;;;22.49;100.00
12781;BME280;6454;43.304;24.344;2023-09-18T07:41:48;100866.44;;;22.63;100.00
12781;BME280;6454;43.304;24.344;2023-09-18T07:44:19;100833.00;;;22.56;100.00
12781;BME280;6454;43.304;24.344;2023-09-18T07:46:46;100853.34;;;22.88;100.00
12781;BME280;6454;43.304;24.344;2023-09-18T07:49:13;100852.09;;;23.01;100.00
12781;BME280;6454;43.304;24.344;2023-09-18T07:51:41;100854.38;;;23.11;96.96
12781;BME280;6454;43.304;24.344;2023-09-18T07:54:08;100848.53;;;23.28;96.09
12781;BME280;6454;43.304;24.344;2023-09-18T07:56:36;100819.59;;;23.26;94.02
12781;BME280;6454;43.304;24.344;2023-09-18T07:59:04;100851.53;;;23.66;93.36
12781;BME280;6454;43.304;24.344;2023-09-18T08:01:31;100841.59;;;23.81;91.65
12781;BME280;6454;43.304;24.344;2023-09-18T08:03:58;100839.03;;;23.88;88.33
12781;BME280;6454;43.304;24.344;2023-09-18T08:06:26;100837.31;;;23.99;85.40
12781;BME280;6454;43.304;24.344;2023-09-18T08:08:53;100838.66;;;24.05;84.01
12781;BME280;6454;43.304;24.344;2023-09-18T08:11:21;100840.81;;;24.12;77.83
12781;BME280;6454;43.304;24.344;2023-09-18T08:13:48;100837.91;;;24.24;68.77
12781;BME280;6454;43.304;24.344;2023-09-18T08:16:16;100836.22;;;24.19;63.25
12781;BME280;6454;43.304;24.344;2023-09-18T08:18:44;100826.34;;;24.38;62.86
12781;BME280;6454;43.304;24.344;2023-09-18T08:21:11;100829.13;;;24.38;62.34
12781;BME280;6454;43.304;24.344;2023-09-18T08:23:41;100819.00;;;24.45;61.98
12781;BME280;6454;43.304;24.344;2023-09-18T08:26:08;100822.78;;;24.56;60.04
12781;BME280;6454;43.304;24.344;2023-09-18T08:28:35;100814.69;;;24.67;59.44
12781;BME280;6454;43.304;24.344;2023-09-18T08:31:08;100829.81;;;24.88;58.29
12781;BME280;6454;43.304;24.344;2023-09-18T08:33:37;100839.53;;;24.98;57.26
12781;BME280;6454;43.304;24.344;2023-09-18T08:36:05;100838.94;;;25.08;56.38
12781;BME280;6454;43.304;24.344;2023-09-18T08:38:33;100845.97;;;25.02;54.54
12781;BME280;6454;43.304;24.344;2023-09-18T08:41:00;100837.22;;;25.00;54.38
12781;BME280;6454;43.304;24.344;2023-09-18T08:43:29;100836.91;;;25.05;54.67
12781;BME280;6454;43.304;24.344;2023-09-18T08:45:59;100829.06;;;25.11;53.85
12781;BME280;6454;43.304;24.344;2023-09-18T08:48:30;100827.72;;;25.24;55.39
12781;BME280;6454;43.304;24.344;2023-09-18T08:51:02;100825.84;;;25.28;52.96
12781;BME280;6454;43.304;24.344;2023-09-18T08:53:30;100816.94;;;25.19;51.88
12781;BME280;6454;43.304;24.344;2023-09-18T08:55:58;100824.34;;;25.34;50.85
12781;BME280;6454;43.304;24.344;2023-09-18T08:58:31;100816.50;;;25.39;50.91
12781;BME280;6454;43.304;24.344;2023-09-18T09:00:59;100811.53;;;25.48;52.71
12781;BME280;6454;43.304;24.344;2023-09-18T09:03:29;100816.16;;;25.64;51.80
12781;BME280;6454;43.304;24.344;2023-09-18T09:05:56;100817.09;;;25.48;51.39
12781;BME280;6454;43.304;24.344;2023-09-18T09:08:28;100817.31;;;25.40;51.81
12781;BME280;6454;43.304;24.344;2023-09-18T09:10:56;100813.59;;;25.51;50.82
12781;BME280;6454;43.304;24.344;2023-09-18T09:13:24;100796.53;;;25.53;50.36
12781;BME280;6454;43.304;24.344;2023-09-18T09:15:54;100805.13;;;25.67;52.02
12781;BME280;6454;43.304;24.344;2023-09-18T09:18:22;100800.59;;;25.82;51.18
12781;BME280;6454;43.304;24.344;2023-09-18T09:20:55;100708.88;;;25.33;51.70
12781;BME280;6454;43.304;24.344;2023-09-18T09:23:24;100784.53;;;25.72;49.32
12781;BME280;6454;43.304;24.344;2023-09-18T09:25:54;100789.47;;;25.82;48.52
12781;BME280;6454;43.304;24.344;2023-09-18T09:28:32;100778.66;;;25.77;50.05
12781;BME280;6454;43.304;24.344;2023-09-18T09:31:02;100787.69;;;25.96;48.94
12781;BME280;6454;43.304;24.344;2023-09-18T09:33:32;100791.94;;;26.13;49.51
12781;BME280;6454;43.304;24.344;2023-09-18T09:36:03;100785.47;;;26.32;49.86
12781;BME280;6454;43.304;24.344;2023-09-18T09:38:32;100787.94;;;26.40;49.48
12781;BME280;6454;43.304;24.344;2023-09-18T09:41:02;100784.13;;;26.52;49.07
12781;BME280;6454;43.304;24.344;2023-09-18T09:43:35;100786.94;;;26.26;49.67
12781;BME280;6454;43.304;24.344;2023-09-18T09:46:02;100786.88;;;26.18;49.81
12781;BME280;6454;43.304;24.344;2023-09-18T09:48:29;100778.97;;;25.98;48.15
12781;BME280;6454;43.304;24.344;2023-09-18T09:50:59;100776.31;;;26.05;48.85
12781;BME280;6454;43.304;24.344;2023-09-18T09:53:42;100766.28;;;25.97;47.88
12781;BME280;6454;43.304;24.344;2023-09-18T09:56:12;100779.56;;;26.10;48.37
12781;BME280;6454;43.304;24.344;2023-09-18T09:58:39;100769.44;;;26.21;48.02
12781;BME280;6454;43.304;24.344;2023-09-18T10:01:11;100770.50;;;26.43;47.71
12781;BME280;6454;43.304;24.344;2023-09-18T10:03:44;100779.72;;;26.47;47.06
12781;BME280;6454;43.304;24.344;2023-09-18T10:06:13;100776.69;;;26.59;48.43
12781;BME280;6454;43.304;24.344;2023-09-18T10:08:40;100773.91;;;26.59;48.07
12781;BME280;6454;43.304;24.344;2023-09-18T10:11:11;100770.22;;;26.81;48.06
12781;BME280;6454;43.304;24.344;2023-09-18T10:13:46;100765.94;;;26.91;46.67
12781;BME280;6454;43.304;24.344;2023-09-18T10:16:18;100757.19;;;26.93;45.15
12781;BME280;6454;43.304;24.344;2023-09-18T10:18:54;100755.97;;;26.90;44.75
12781;BME280;6454;43.304;24.344;2023-09-18T10:21:26;100751.47;;;26.78;44.20
12781;BME280;6454;43.304;24.344;2023-09-18T10:24:02;100761.13;;;26.88;45.40
12781;BME280;6454;43.304;24.344;2023-09-18T10:26:37;100757.00;;;27.12;44.29
12781;BME280;6454;43.304;24.344;2023-09-18T10:29:09;100751.44;;;27.15;43.89
12781;BME280;6454;43.304;24.344;2023-09-18T10:31:41;100752.13;;;27.02;42.24
12781;BME280;6454;43.304;24.344;2023-09-18T10:34:10;100758.94;;;27.08;42.53
12781;BME280;6454;43.304;24.344;2023-09-18T10:36:41;100747.97;;;27.25;42.50
12781;BME280;6454;43.304;24.344;2023-09-18T10:39:09;100725.97;;;27.13;42.27
12781;BME280;6454;43.304;24.344;2023-09-18T10:41:41;100750.72;;;27.22;41.41
12781;BME280;6454;43.304;24.344;2023-09-18T10:44:08;100739.44;;;27.08;41.32
12781;BME280;6454;43.304;24.344;2023-09-18T10:46:38;100734.94;;;27.36;40.82
12781;BME280;6454;43.304;24.344;2023-09-18T10:49:05;100747.31;;;27.39;41.09
12781;BME280;6454;43.304;24.344;2023-09-18T10:51:32;100745.41;;;27.46;40.53
12781;BME280;6454;43.304;24.344;2023-09-18T10:54:00;100739.72;;;27.36;38.97
12781;BME280;6454;43.304;24.344;2023-09-18T10:56:28;100738.97;;;27.42;38.10
12781;BME280;6454;43.304;24.344;2023-09-18T10:59:13;100728.28;;;27.48;39.33
12781;BME280;6454;43.304;24.344;2023-09-18T11:01:40;100726.47;;;27.73;39.91
12781;BME280;6454;43.304;24.344;2023-09-18T11:04:08;100729.63;;;27.68;38.13
12781;BME280;6454;43.304;24.344;2023-09-18T11:07:01;100724.88;;;27.69;37.66
12781;BME280;6454;43.304;24.344;2023-09-18T11:09:29;100719.72;;;27.74;37.28
12781;BME280;6454;43.304;24.344;2023-09-18T11:12:02;100709.75;;;27.73;37.98
12781;BME280;6454;43.304;24.344;2023-09-18T11:14:47;100697.81;;;27.76;37.46
12781;BME280;6454;43.304;24.344;2023-09-18T11:17:32;100712.94;;;27.75;35.67
12781;BME280;6454;43.304;24.344;2023-09-18T11:20:03;100709.38;;;27.78;36.07
12781;BME280;6454;43.304;24.344;2023-09-18T11:22:34;100704.25;;;27.87;35.96
12781;BME280;6454;43.304;24.344;2023-09-18T11:25:30;100712.25;;;27.92;35.09
12781;BME280;6454;43.304;24.344;2023-09-18T11:28:00;100709.41;;;27.85;35.96
12781;BME280;6454;43.304;24.344;2023-09-18T11:30:29;100705.19;;;28.05;34.69
12781;BME280;6454;43.304;24.344;2023-09-18T11:32:56;100674.00;;;27.89;33.85
12781;BME280;6454;43.304;24.344;2023-09-18T11:35:24;100699.28;;;28.21;33.48
12781;BME280;6454;43.304;24.344;2023-09-18T11:38:10;100708.47;;;28.25;33.96
12781;BME280;6454;43.304;24.344;2023-09-18T11:40:38;100700.50;;;28.24;33.30
12781;BME280;6454;43.304;24.344;2023-09-18T11:43:23;100697.31;;;28.22;34.11
12781;BME280;6454;43.304;24.344;2023-09-18T11:45:53;100701.31;;;28.31;33.74
12781;BME280;6454;43.304;24.344;2023-09-18T11:48:21;100686.53;;;28.24;32.72
12781;BME280;6454;43.304;24.344;2023-09-18T11:50:50;100682.53;;;28.25;34.08
12781;BME280;6454;43.304;24.344;2023-09-18T11:53:18;100679.38;;;28.30;32.80
12781;BME280;6454;43.304;24.344;2023-09-18T11:55:47;100674.97;;;28.25;33.66
12781;BME280;6454;43.304;24.344;2023-09-18T11:58:14;100664.25;;;28.31;33.63
12781;BME280;6454;43.304;24.344;2023-09-18T12:00:41;100674.22;;;28.32;32.27
12781;BME280;6454;43.304;24.344;2023-09-18T12:03:19;100665.09;;;28.45;33.64
12781;BME280;6454;43.304;24.344;2023-09-18T12:05:57;100666.69;;;28.53;33.04
12781;BME280;6454;43.304;24.344;2023-09-18T12:08:25;100647.16;;;28.53;33.11
12781;BME280;6454;43.304;24.344;2023-09-18T12:10:54;100662.78;;;28.68;32.10
12781;BME280;6454;43.304;24.344;2023-09-18T12:13:22;100665.16;;;28.70;30.28
12781;BME280;6454;43.304;24.344;2023-09-18T12:15:56;100663.16;;;28.63;30.88
12781;BME280;6454;43.304;24.344;2023-09-18T12:18:28;100651.13;;;28.52;30.01
12781;BME280;6454;43.304;24.344;2023-09-18T12:20:55;100649.56;;;28.58;30.09
12781;BME280;6454;43.304;24.344;2023-09-18T12:23:24;100641.16;;;28.41;30.19
12781;BME280;6454;43.304;24.344;2023-09-18T12:25:58;100658.38;;;28.60;30.59
12781;BME280;6454;43.304;24.344;2023-09-18T12:28:26;100611.72;;;28.61;29.45
12781;BME280;6454;43.304;24.344;2023-09-18T12:30:54;100633.22;;;28.57;29.98
12781;BME280;6454;43.304;24.344;2023-09-18T12:33:22;100633.59;;;28.48;29.67
12781;BME280;6454;43.304;24.344;2023-09-18T12:35:51;100626.41;;;28.51;29.83
12781;BME280;6454;43.304;24.344;2023-09-18T12:38:18;100641.22;;;28.62;30.15
12781;BME280;6454;43.304;24.344;2023-09-18T12:40:54;100629.66;;;28.63;30.51
12781;BME280;6454;43.304;24.344;2023-09-18T12:43:22;100634.38;;;28.52;29.85
12781;BME280;6454;43.304;24.344;2023-09-18T12:45:50;100635.25;;;28.63;29.84
12781;BME280;6454;43.304;24.344;2023-09-18T12:48:18;100628.41;;;28.57;29.77
12781;BME280;6454;43.304;24.344;2023-09-18T12:50:45;100620.47;;;28.59;29.99
12781;BME280;6454;43.304;24.344;2023-09-18T12:53:14;100600.91;;;28.52;30.20
12781;BME280;6454;43.304;24.344;2023-09-18T12:55:43;100614.91;;;28.70;30.39